sensor_id;sensor_type;location;lat;lon;timestamp;P1;durP1;ratioP1;P2;durP2;ratioP2
66601;SDS011;53459;51.828;7.872;2022-08-02T00:01:17;14.20;;;7.40;;
66601;SDS011;53459;51.828;7.872;2022-08-02T00:03:43;13.32;;;6.80;;
66601;SDS011;53459;51.828;7.872;2022-08-02T00:06:08;12.73;;;7.18;;
66601;SDS011;53459;51.828;7.872;2022-08-02T00:08:35;13.50;;;7.00;;
66601;SDS011;53459;51.828;7.872;2022-08-02T00:11:00;13.00;;;6.55;;
66601;SDS011;53459;51.828;7.872;2022-08-02T00:14:29;12.45;;;6.32;;
66601;SDS011;53459;51.828;7.872;2022-08-02T00:17:15;12.73;;;6.35;;
66601;SDS011;53459;51.828;7.872;2022-08-02T00:19:42;13.30;;;6.80;;
66601;SDS011;53459;51.828;7.872;2022-08-02T00:22:08;11.98;;;6.60;;
66601;SDS011;53459;51.828;7.872;2022-08-02T00:24:52;11.93;;;6.80;;
66601;SDS011;53459;51.828;7.872;2022-08-02T00:27:18;14.25;;;7.20;;
66601;SDS011;53459;51.828;7.872;2022-08-02T00:29:44;12.23;;;6.65;;
66601;SDS011;53459;51.828;7.872;2022-08-02T00:32:10;13.10;;;6.83;;
66601;SDS011;53459;51.828;7.872;2022-08-02T00:34:35;16.17;;;6.90;;
66601;SDS011;53459;51.828;7.872;2022-08-02T00:38:57;12.02;;;6.55;;
66601;SDS011;53459;51.828;7.872;2022-08-02T00:41:23;12.82;;;6.53;;
66601;SDS011;53459;51.828;7.872;2022-08-02T00:43:49;13.65;;;6.85;;
66601;SDS011;53459;51.828;7.872;2022-08-02T00:46:17;11.07;;;6.80;;
66601;SDS011;53459;51.828;7.872;2022-08-02T00:48:59;10.52;;;6.30;;
66601;SDS011;53459;51.828;7.872;2022-08-02T00:51:25;12.20;;;5.88;;
66601;SDS011;53459;51.828;7.872;2022-08-02T00:53:50;12.50;;;6.33;;
66601;SDS011;53459;51.828;7.872;2022-08-02T00:56:16;13.25;;;6.10;;
66601;SDS011;53459;51.828;7.872;2022-08-02T00:58:42;10.87;;;6.27;;
66601;SDS011;53459;51.828;7.872;2022-08-02T01:01:07;11.63;;;6.30;;
66601;SDS011;53459;51.828;7.872;2022-08-02T01:03:33;11.17;;;6.60;;
66601;SDS011;53459;51.828;7.872;2022-08-02T01:05:58;12.67;;;7.00;;
66601;SDS011;53459;51.828;7.872;2022-08-02T01:08:24;12.67;;;7.03;;
66601;SDS011;53459;51.828;7.872;2022-08-02T01:10:50;11.80;;;6.63;;
66601;SDS011;53459;51.828;7.872;2022-08-02T01:13:15;14.95;;;7.40;;
66601;SDS011;53459;51.828;7.872;2022-08-02T01:15:42;14.40;;;7.00;;
66601;SDS011;53459;51.828;7.872;2022-08-02T01:18:17;12.23;;;7.20;;
66601;SDS011;53459;51.828;7.872;2022-08-02T01:21:46;12.35;;;6.47;;
66601;SDS011;53459;51.828;7.872;2022-08-02T01:24:20;14.13;;;7.70;;
66601;SDS011;53459;51.828;7.872;2022-08-02T01:29:55;14.18;;;7.63;;
66601;SDS011;53459;51.828;7.872;2022-08-02T01:32:24;15.73;;;7.13;;
66601;SDS011;53459;51.828;7.872;2022-08-02T01:34:58;13.00;;;6.90;;
66601;SDS011;53459;51.828;7.872;2022-08-02T01:40:04;14.60;;;7.32;;
66601;SDS011;53459;51.828;7.872;2022-08-02T01:43:25;12.52;;;6.18;;
66601;SDS011;53459;51.828;7.872;2022-08-02T01:45:53;12.43;;;7.00;;
66601;SDS011;53459;51.828;7.872;2022-08-02T01:48:20;11.43;;;6.38;;
66601;SDS011;53459;51.828;7.872;2022-08-02T01:50:48;10.38;;;6.40;;
66601;SDS011;53459;51.828;7.872;2022-08-02T01:53:17;12.40;;;6.38;;
66601;SDS011;53459;51.828;7.872;2022-08-02T01:55:53;13.43;;;6.82;;
66601;SDS011;53459;51.828;7.872;2022-08-02T01:59:54;12.85;;;6.38;;
66601;SDS011;53459;51.828;7.872;2022-08-02T02:02:24;11.65;;;6.63;;
66601;SDS011;53459;51.828;7.872;2022-08-02T02:04:53;12.73;;;6.67;;
66601;SDS011;53459;51.828;7.872;2022-08-02T02:08:58;13.35;;;7.10;;
66601;SDS011;53459;51.828;7.872;2022-08-02T02:11:24;11.23;;;6.07;;
66601;SDS011;53459;51.828;7.872;2022-08-02T02:13:50;13.35;;;6.13;;
66601;SDS011;53459;51.828;7.872;2022-08-02T02:16:17;10.20;;;5.50;;
66601;SDS011;53459;51.828;7.872;2022-08-02T02:19:23;11.25;;;6.35;;
66601;SDS011;53459;51.828;7.872;2022-08-02T02:21:49;13.53;;;6.80;;
66601;SDS011;53459;51.828;7.872;2022-08-02T02:24:15;11.80;;;6.20;;
66601;SDS011;53459;51.828;7.872;2022-08-02T02:28:41;11.13;;;6.13;;
66601;SDS011;53459;51.828;7.872;2022-08-02T02:31:09;13.27;;;6.03;;
66601;SDS011;53459;51.828;7.872;2022-08-02T02:33:49;10.23;;;6.13;;
66601;SDS011;53459;51.828;7.872;2022-08-02T02:36:21;10.60;;;6.18;;
66601;SDS011;53459;51.828;7.872;2022-08-02T02:38:47;12.98;;;7.00;;
66601;SDS011;53459;51.828;7.872;2022-08-02T02:41:15;12.45;;;6.45;;
66601;SDS011;53459;51.828;7.872;2022-08-02T02:43:43;12.23;;;6.73;;
66601;SDS011;53459;51.828;7.872;2022-08-02T02:46:11;14.27;;;7.00;;
66601;SDS011;53459;51.828;7.872;2022-08-02T02:48:37;12.25;;;7.13;;
66601;SDS011;53459;51.828;7.872;2022-08-02T02:51:03;12.83;;;6.83;;
66601;SDS011;53459;51.828;7.872;2022-08-02T02:53:30;12.80;;;6.90;;
66601;SDS011;53459;51.828;7.872;2022-08-02T02:55:57;13.93;;;7.67;;
66601;SDS011;53459;51.828;7.872;2022-08-02T02:58:23;15.18;;;7.22;;
66601;SDS011;53459;51.828;7.872;2022-08-02T03:00:49;13.68;;;7.28;;
66601;SDS011;53459;51.828;7.872;2022-08-02T03:03:34;14.20;;;7.30;;
66601;SDS011;53459;51.828;7.872;2022-08-02T03:06:01;11.45;;;6.85;;
66601;SDS011;53459;51.828;7.872;2022-08-02T03:08:27;11.43;;;7.20;;
66601;SDS011;53459;51.828;7.872;2022-08-02T03:10:53;10.90;;;6.53;;
66601;SDS011;53459;51.828;7.872;2022-08-02T03:13:19;15.75;;;7.50;;
66601;SDS011;53459;51.828;7.872;2022-08-02T03:15:46;12.00;;;6.97;;
66601;SDS011;53459;51.828;7.872;2022-08-02T03:18:29;15.23;;;7.27;;
66601;SDS011;53459;51.828;7.872;2022-08-02T03:21:02;14.10;;;7.20;;
66601;SDS011;53459;51.828;7.872;2022-08-02T03:23:30;13.48;;;8.15;;
66601;SDS011;53459;51.828;7.872;2022-08-02T03:25:56;14.90;;;7.72;;
66601;SDS011;53459;51.828;7.872;2022-08-02T03:28:33;14.48;;;7.68;;
66601;SDS011;53459;51.828;7.872;2022-08-02T03:30:59;14.77;;;8.03;;
66601;SDS011;53459;51.828;7.872;2022-08-02T03:33:26;14.23;;;7.35;;
66601;SDS011;53459;51.828;7.872;2022-08-02T03:35:53;14.30;;;7.60;;
66601;SDS011;53459;51.828;7.872;2022-08-02T03:38:21;14.23;;;8.10;;
66601;SDS011;53459;51.828;7.872;2022-08-02T03:40:48;11.83;;;7.03;;
66601;SDS011;53459;51.828;7.872;2022-08-02T03:43:14;12.43;;;6.70;;
66601;SDS011;53459;51.828;7.872;2022-08-02T03:45:42;11.68;;;6.10;;
66601;SDS011;53459;51.828;7.872;2022-08-02T03:49:33;10.50;;;5.55;;
66601;SDS011;53459;51.828;7.872;2022-08-02T03:51:59;10.10;;;5.80;;
66601;SDS011;53459;51.828;7.872;2022-08-02T03:54:26;10.68;;;6.22;;
66601;SDS011;53459;51.828;7.872;2022-08-02T03:58:07;7.72;;;4.40;;
66601;SDS011;53459;51.828;7.872;2022-08-02T04:00:32;8.85;;;4.55;;
66601;SDS011;53459;51.828;7.872;2022-08-02T04:02:58;8.90;;;4.70;;
66601;SDS011;53459;51.828;7.872;2022-08-02T04:05:24;9.32;;;4.90;;
66601;SDS011;53459;51.828;7.872;2022-08-02T04:07:50;9.67;;;5.30;;
66601;SDS011;53459;51.828;7.872;2022-08-02T04:10:16;10.18;;;5.25;;
66601;SDS011;53459;51.828;7.872;2022-08-02T04:12:42;8.95;;;4.78;;
66601;SDS011;53459;51.828;7.872;2022-08-02T04:15:08;10.77;;;4.65;;
66601;SDS011;53459;51.828;7.872;2022-08-02T04:17:38;8.60;;;4.50;;
66601;SDS011;53459;51.828;7.872;2022-08-02T04:20:18;9.10;;;4.57;;
66601;SDS011;53459;51.828;7.872;2022-08-02T04:22:48;8.43;;;4.70;;
66601;SDS011;53459;51.828;7.872;2022-08-02T04:25:19;13.43;;;5.30;;
66601;SDS011;53459;51.828;7.872;2022-08-02T04:27:45;8.32;;;4.75;;
66601;SDS011;53459;51.828;7.872;2022-08-02T04:30:11;10.40;;;4.82;;
66601;SDS011;53459;51.828;7.872;2022-08-02T04:32:38;11.70;;;4.80;;
66601;SDS011;53459;51.828;7.872;2022-08-02T04:35:05;9.27;;;4.57;;
66601;SDS011;53459;51.828;7.872;2022-08-02T04:38:47;7.10;;;4.15;;
66601;SDS011;53459;51.828;7.872;2022-08-02T04:41:13;9.25;;;4.60;;
66601;SDS011;53459;51.828;7.872;2022-08-02T04:43:39;8.27;;;4.57;;
66601;SDS011;53459;51.828;7.872;2022-08-02T04:46:05;9.23;;;4.80;;
66601;SDS011;53459;51.828;7.872;2022-08-02T04:48:31;9.75;;;4.93;;
66601;SDS011;53459;51.828;7.872;2022-08-02T04:50:57;9.17;;;4.53;;
66601;SDS011;53459;51.828;7.872;2022-08-02T04:53:22;10.23;;;5.10;;
66601;SDS011;53459;51.828;7.872;2022-08-02T04:55:48;10.07;;;4.93;;
66601;SDS011;53459;51.828;7.872;2022-08-02T04:58:14;9.80;;;4.90;;
66601;SDS011;53459;51.828;7.872;2022-08-02T05:00:39;9.27;;;5.03;;
66601;SDS011;53459;51.828;7.872;2022-08-02T05:03:47;11.32;;;4.93;;
66601;SDS011;53459;51.828;7.872;2022-08-02T05:06:13;10.18;;;5.30;;
66601;SDS011;53459;51.828;7.872;2022-08-02T05:10:31;9.25;;;6.28;;
66601;SDS011;53459;51.828;7.872;2022-08-02T05:12:57;15.85;;;6.93;;
66601;SDS011;53459;51.828;7.872;2022-08-02T05:15:23;12.90;;;6.87;;
66601;SDS011;53459;51.828;7.872;2022-08-02T05:17:49;11.83;;;6.50;;
66601;SDS011;53459;51.828;7.872;2022-08-02T05:20:16;13.52;;;6.38;;
66601;SDS011;53459;51.828;7.872;2022-08-02T05:22:42;15.70;;;8.98;;
66601;SDS011;53459;51.828;7.872;2022-08-02T05:25:08;18.13;;;9.48;;
66601;SDS011;53459;51.828;7.872;2022-08-02T05:30:34;13.20;;;7.50;;
66601;SDS011;53459;51.828;7.872;2022-08-02T05:33:00;15.90;;;9.00;;
66601;SDS011;53459;51.828;7.872;2022-08-02T05:35:42;14.60;;;8.70;;
66601;SDS011;53459;51.828;7.872;2022-08-02T05:38:23;16.33;;;9.40;;
66601;SDS011;53459;51.828;7.872;2022-08-02T05:40:50;15.32;;;8.45;;
66601;SDS011;53459;51.828;7.872;2022-08-02T05:43:16;22.70;;;13.10;;
66601;SDS011;53459;51.828;7.872;2022-08-02T05:46:00;20.20;;;12.63;;
66601;SDS011;53459;51.828;7.872;2022-08-02T05:48:55;17.93;;;11.10;;
66601;SDS011;53459;51.828;7.872;2022-08-02T05:51:22;21.48;;;12.38;;
66601;SDS011;53459;51.828;7.872;2022-08-02T05:54:14;20.73;;;12.38;;
66601;SDS011;53459;51.828;7.872;2022-08-02T05:59:23;17.58;;;11.52;;
66601;SDS011;53459;51.828;7.872;2022-08-02T06:01:55;22.83;;;13.20;;
66601;SDS011;53459;51.828;7.872;2022-08-02T06:04:32;24.48;;;13.93;;
66601;SDS011;53459;51.828;7.872;2022-08-02T06:07:05;20.92;;;13.40;;
66601;SDS011;53459;51.828;7.872;2022-08-02T06:09:34;22.90;;;13.90;;
66601;SDS011;53459;51.828;7.872;2022-08-02T06:12:00;23.63;;;13.95;;
66601;SDS011;53459;51.828;7.872;2022-08-02T06:14:35;23.75;;;13.77;;
66601;SDS011;53459;51.828;7.872;2022-08-02T06:20:24;21.77;;;13.98;;
66601;SDS011;53459;51.828;7.872;2022-08-02T06:23:55;22.03;;;14.23;;
66601;SDS011;53459;51.828;7.872;2022-08-02T06:26:23;23.20;;;13.57;;
66601;SDS011;53459;51.828;7.872;2022-08-02T06:29:11;24.60;;;13.10;;
66601;SDS011;53459;51.828;7.872;2022-08-02T06:31:39;19.73;;;13.00;;
66601;SDS011;53459;51.828;7.872;2022-08-02T06:34:05;21.95;;;12.43;;
66601;SDS011;53459;51.828;7.872;2022-08-02T06:39:26;21.08;;;12.20;;
66601;SDS011;53459;51.828;7.872;2022-08-02T06:41:57;20.15;;;12.18;;
66601;SDS011;53459;51.828;7.872;2022-08-02T06:44:27;21.83;;;12.80;;
66601;SDS011;53459;51.828;7.872;2022-08-02T06:46:53;16.88;;;10.68;;
66601;SDS011;53459;51.828;7.872;2022-08-02T06:49:19;17.20;;;9.90;;
66601;SDS011;53459;51.828;7.872;2022-08-02T06:51:44;19.52;;;11.23;;
66601;SDS011;53459;51.828;7.872;2022-08-02T06:54:10;18.27;;;10.17;;
66601;SDS011;53459;51.828;7.872;2022-08-02T06:56:36;16.27;;;10.00;;
66601;SDS011;53459;51.828;7.872;2022-08-02T06:59:01;19.80;;;10.17;;
66601;SDS011;53459;51.828;7.872;2022-08-02T07:01:27;20.83;;;9.77;;
66601;SDS011;53459;51.828;7.872;2022-08-02T07:03:52;15.43;;;9.57;;
66601;SDS011;53459;51.828;7.872;2022-08-02T07:08:09;16.33;;;9.32;;
66601;SDS011;53459;51.828;7.872;2022-08-02T07:10:35;15.93;;;8.93;;
66601;SDS011;53459;51.828;7.872;2022-08-02T07:13:00;17.83;;;8.90;;
66601;SDS011;53459;51.828;7.872;2022-08-02T07:15:26;18.10;;;8.52;;
66601;SDS011;53459;51.828;7.872;2022-08-02T07:17:52;16.00;;;8.50;;
66601;SDS011;53459;51.828;7.872;2022-08-02T07:20:17;14.45;;;8.10;;
66601;SDS011;53459;51.828;7.872;2022-08-02T07:22:43;15.90;;;7.97;;
66601;SDS011;53459;51.828;7.872;2022-08-02T07:25:09;13.70;;;7.55;;
66601;SDS011;53459;51.828;7.872;2022-08-02T07:27:35;13.60;;;7.60;;
66601;SDS011;53459;51.828;7.872;2022-08-02T07:30:00;14.23;;;7.33;;
66601;SDS011;53459;51.828;7.872;2022-08-02T07:32:27;14.05;;;6.40;;
66601;SDS011;53459;51.828;7.872;2022-08-02T07:34:54;11.75;;;6.68;;
66601;SDS011;53459;51.828;7.872;2022-08-02T07:37:21;13.40;;;6.90;;
66601;SDS011;53459;51.828;7.872;2022-08-02T07:39:51;12.40;;;6.43;;
66601;SDS011;53459;51.828;7.872;2022-08-02T07:42:17;11.68;;;6.03;;
66601;SDS011;53459;51.828;7.872;2022-08-02T07:44:43;12.55;;;6.45;;
66601;SDS011;53459;51.828;7.872;2022-08-02T07:47:08;12.43;;;6.13;;
66601;SDS011;53459;51.828;7.872;2022-08-02T07:51:04;13.38;;;6.28;;
66601;SDS011;53459;51.828;7.872;2022-08-02T07:53:30;13.40;;;6.90;;
66601;SDS011;53459;51.828;7.872;2022-08-02T07:55:55;11.77;;;6.77;;
66601;SDS011;53459;51.828;7.872;2022-08-02T07:58:21;12.25;;;5.78;;
66601;SDS011;53459;51.828;7.872;2022-08-02T08:00:47;13.73;;;6.00;;
66601;SDS011;53459;51.828;7.872;2022-08-02T08:03:12;11.82;;;6.15;;
66601;SDS011;53459;51.828;7.872;2022-08-02T08:05:38;11.93;;;6.10;;
66601;SDS011;53459;51.828;7.872;2022-08-02T08:08:04;13.45;;;6.00;;
66601;SDS011;53459;51.828;7.872;2022-08-02T08:10:30;12.67;;;5.67;;
66601;SDS011;53459;51.828;7.872;2022-08-02T08:12:56;14.40;;;5.70;;
66601;SDS011;53459;51.828;7.872;2022-08-02T08:15:22;12.15;;;5.70;;
66601;SDS011;53459;51.828;7.872;2022-08-02T08:17:48;13.45;;;5.97;;
66601;SDS011;53459;51.828;7.872;2022-08-02T08:20:13;11.50;;;5.57;;
66601;SDS011;53459;51.828;7.872;2022-08-02T08:22:39;11.27;;;5.72;;
66601;SDS011;53459;51.828;7.872;2022-08-02T08:25:05;8.90;;;4.10;;
66601;SDS011;53459;51.828;7.872;2022-08-02T08:27:31;9.32;;;4.38;;
66601;SDS011;53459;51.828;7.872;2022-08-02T08:29:56;10.00;;;4.27;;
66601;SDS011;53459;51.828;7.872;2022-08-02T08:32:22;10.93;;;4.47;;
66601;SDS011;53459;51.828;7.872;2022-08-02T08:34:47;8.17;;;4.00;;
66601;SDS011;53459;51.828;7.872;2022-08-02T08:37:15;9.18;;;3.35;;
66601;SDS011;53459;51.828;7.872;2022-08-02T08:39:41;10.75;;;4.10;;
66601;SDS011;53459;51.828;7.872;2022-08-02T08:42:07;8.57;;;4.37;;
66601;SDS011;53459;51.828;7.872;2022-08-02T08:44:36;8.43;;;4.25;;
66601;SDS011;53459;51.828;7.872;2022-08-02T08:47:02;9.48;;;4.72;;
66601;SDS011;53459;51.828;7.872;2022-08-02T08:49:36;10.52;;;4.40;;
66601;SDS011;53459;51.828;7.872;2022-08-02T08:52:05;11.23;;;5.18;;
66601;SDS011;53459;51.828;7.872;2022-08-02T08:54:31;11.07;;;5.25;;
66601;SDS011;53459;51.828;7.872;2022-08-02T08:56:59;10.15;;;4.50;;
66601;SDS011;53459;51.828;7.872;2022-08-02T08:59:28;8.37;;;3.80;;
66601;SDS011;53459;51.828;7.872;2022-08-02T09:01:53;9.05;;;4.07;;
66601;SDS011;53459;51.828;7.872;2022-08-02T09:04:21;9.30;;;4.40;;
66601;SDS011;53459;51.828;7.872;2022-08-02T09:06:46;7.37;;;3.90;;
66601;SDS011;53459;51.828;7.872;2022-08-02T09:09:12;11.63;;;4.30;;
66601;SDS011;53459;51.828;7.872;2022-08-02T09:13:02;8.45;;;4.00;;
66601;SDS011;53459;51.828;7.872;2022-08-02T09:15:57;9.67;;;4.10;;
66601;SDS011;53459;51.828;7.872;2022-08-02T09:23:09;8.75;;;3.03;;
66601;SDS011;53459;51.828;7.872;2022-08-02T09:25:36;7.30;;;2.70;;
66601;SDS011;53459;51.828;7.872;2022-08-02T09:28:02;9.83;;;3.27;;
66601;SDS011;53459;51.828;7.872;2022-08-02T09:30:29;6.38;;;2.50;;
66601;SDS011;53459;51.828;7.872;2022-08-02T09:32:55;6.45;;;2.63;;
66601;SDS011;53459;51.828;7.872;2022-08-02T09:38:59;6.10;;;2.22;;
66601;SDS011;53459;51.828;7.872;2022-08-02T09:41:27;8.68;;;2.60;;
66601;SDS011;53459;51.828;7.872;2022-08-02T09:43:55;6.78;;;2.50;;
66601;SDS011;53459;51.828;7.872;2022-08-02T09:46:28;7.13;;;2.38;;
66601;SDS011;53459;51.828;7.872;2022-08-02T09:50:50;7.20;;;2.55;;
66601;SDS011;53459;51.828;7.872;2022-08-02T09:53:21;7.38;;;2.40;;
66601;SDS011;53459;51.828;7.872;2022-08-02T09:55:54;6.80;;;2.30;;
66601;SDS011;53459;51.828;7.872;2022-08-02T09:58:20;6.75;;;2.50;;
66601;SDS011;53459;51.828;7.872;2022-08-02T10:00:53;6.63;;;2.25;;
66601;SDS011;53459;51.828;7.872;2022-08-02T10:03:19;5.50;;;2.40;;
66601;SDS011;53459;51.828;7.872;2022-08-02T10:05:49;5.87;;;2.20;;
66601;SDS011;53459;51.828;7.872;2022-08-02T10:08:17;6.90;;;2.35;;
66601;SDS011;53459;51.828;7.872;2022-08-02T10:13:56;4.60;;;1.75;;
66601;SDS011;53459;51.828;7.872;2022-08-02T10:18:34;6.68;;;2.15;;
66601;SDS011;53459;51.828;7.872;2022-08-02T10:21:00;5.07;;;2.00;;
66601;SDS011;53459;51.828;7.872;2022-08-02T10:23:27;5.50;;;2.00;;
66601;SDS011;53459;51.828;7.872;2022-08-02T10:25:58;5.45;;;1.92;;
66601;SDS011;53459;51.828;7.872;2022-08-02T10:30:47;9.95;;;2.30;;
66601;SDS011;53459;51.828;7.872;2022-08-02T10:33:15;7.65;;;2.47;;
66601;SDS011;53459;51.828;7.872;2022-08-02T10:35:43;5.53;;;2.30;;
66601;SDS011;53459;51.828;7.872;2022-08-02T10:38:11;6.00;;;2.50;;
66601;SDS011;53459;51.828;7.872;2022-08-02T10:46:28;6.03;;;2.27;;
66601;SDS011;53459;51.828;7.872;2022-08-02T10:49:00;5.35;;;2.10;;
66601;SDS011;53459;51.828;7.872;2022-08-02T10:57:02;8.45;;;2.80;;
66601;SDS011;53459;51.828;7.872;2022-08-02T11:01:28;7.63;;;2.40;;
66601;SDS011;53459;51.828;7.872;2022-08-02T11:03:58;5.00;;;2.33;;
66601;SDS011;53459;51.828;7.872;2022-08-02T11:06:24;6.53;;;2.80;;
66601;SDS011;53459;51.828;7.872;2022-08-02T11:08:49;5.50;;;2.50;;
66601;SDS011;53459;51.828;7.872;2022-08-02T11:11:17;6.47;;;2.30;;
66601;SDS011;53459;51.828;7.872;2022-08-02T11:14:00;4.70;;;2.38;;
66601;SDS011;53459;51.828;7.872;2022-08-02T11:19:21;7.03;;;2.30;;
66601;SDS011;53459;51.828;7.872;2022-08-02T11:22:12;5.60;;;2.15;;
66601;SDS011;53459;51.828;7.872;2022-08-02T11:24:42;7.53;;;2.65;;
66601;SDS011;53459;51.828;7.872;2022-08-02T11:27:08;5.45;;;2.42;;
66601;SDS011;53459;51.828;7.872;2022-08-02T11:29:42;6.00;;;2.70;;
66601;SDS011;53459;51.828;7.872;2022-08-02T11:32:22;5.75;;;2.28;;
66601;SDS011;53459;51.828;7.872;2022-08-02T11:34:50;5.85;;;2.20;;
66601;SDS011;53459;51.828;7.872;2022-08-02T11:37:30;5.70;;;2.07;;
66601;SDS011;53459;51.828;7.872;2022-08-02T11:39:59;5.63;;;2.10;;
66601;SDS011;53459;51.828;7.872;2022-08-02T11:42:35;5.32;;;1.98;;
66601;SDS011;53459;51.828;7.872;2022-08-02T11:45:03;6.05;;;2.22;;
66601;SDS011;53459;51.828;7.872;2022-08-02T11:47:31;5.90;;;2.33;;
66601;SDS011;53459;51.828;7.872;2022-08-02T11:50:04;6.28;;;2.60;;
66601;SDS011;53459;51.828;7.872;2022-08-02T11:52:33;4.90;;;1.95;;
66601;SDS011;53459;51.828;7.872;2022-08-02T11:55:00;5.10;;;2.10;;
66601;SDS011;53459;51.828;7.872;2022-08-02T11:57:26;4.55;;;2.00;;
66601;SDS011;53459;51.828;7.872;2022-08-02T12:01:20;5.05;;;2.00;;
66601;SDS011;53459;51.828;7.872;2022-08-02T12:03:47;4.93;;;2.00;;
66601;SDS011;53459;51.828;7.872;2022-08-02T12:07:50;6.10;;;2.38;;
66601;SDS011;53459;51.828;7.872;2022-08-02T12:10:18;4.38;;;1.92;;
66601;SDS011;53459;51.828;7.872;2022-08-02T12:12:52;5.23;;;2.20;;
66601;SDS011;53459;51.828;7.872;2022-08-02T12:18:00;4.95;;;2.28;;
66601;SDS011;53459;51.828;7.872;2022-08-02T12:20:45;5.35;;;2.03;;
66601;SDS011;53459;51.828;7.872;2022-08-02T12:23:11;4.82;;;2.33;;
66601;SDS011;53459;51.828;7.872;2022-08-02T12:26:25;5.43;;;2.28;;
66601;SDS011;53459;51.828;7.872;2022-08-02T12:28:53;4.60;;;2.30;;
66601;SDS011;53459;51.828;7.872;2022-08-02T12:31:21;4.70;;;2.00;;
66601;SDS011;53459;51.828;7.872;2022-08-02T12:34:10;5.03;;;2.00;;
66601;SDS011;53459;51.828;7.872;2022-08-02T12:36:39;3.92;;;1.52;;
66601;SDS011;53459;51.828;7.872;2022-08-02T12:39:05;5.13;;;2.03;;
66601;SDS011;53459;51.828;7.872;2022-08-02T12:41:36;6.85;;;2.13;;
66601;SDS011;53459;51.828;7.872;2022-08-02T12:44:02;5.20;;;2.13;;
66601;SDS011;53459;51.828;7.872;2022-08-02T12:46:28;4.75;;;2.05;;
66601;SDS011;53459;51.828;7.872;2022-08-02T12:48:55;5.53;;;2.00;;
66601;SDS011;53459;51.828;7.872;2022-08-02T12:51:31;4.70;;;2.03;;
66601;SDS011;53459;51.828;7.872;2022-08-02T12:54:12;4.85;;;2.30;;
66601;SDS011;53459;51.828;7.872;2022-08-02T12:56:40;4.50;;;2.00;;
66601;SDS011;53459;51.828;7.872;2022-08-02T12:59:06;5.40;;;2.20;;
66601;SDS011;53459;51.828;7.872;2022-08-02T13:01:32;7.47;;;2.40;;
66601;SDS011;53459;51.828;7.872;2022-08-02T13:03:58;6.13;;;2.60;;
66601;SDS011;53459;51.828;7.872;2022-08-02T13:06:24;5.93;;;2.80;;
66601;SDS011;53459;51.828;7.872;2022-08-02T13:08:50;7.95;;;2.55;;
66601;SDS011;53459;51.828;7.872;2022-08-02T13:11:18;7.55;;;2.60;;
66601;SDS011;53459;51.828;7.872;2022-08-02T13:13:44;4.85;;;2.50;;
66601;SDS011;53459;51.828;7.872;2022-08-02T13:17:01;5.63;;;3.07;;
66601;SDS011;53459;51.828;7.872;2022-08-02T13:19:26;6.03;;;2.60;;
66601;SDS011;53459;51.828;7.872;2022-08-02T13:21:52;7.03;;;2.80;;
66601;SDS011;53459;51.828;7.872;2022-08-02T13:24:18;5.50;;;3.00;;
66601;SDS011;53459;51.828;7.872;2022-08-02T13:26:44;6.13;;;2.80;;
66601;SDS011;53459;51.828;7.872;2022-08-02T13:29:10;5.23;;;2.67;;
66601;SDS011;53459;51.828;7.872;2022-08-02T13:31:37;5.63;;;3.03;;
66601;SDS011;53459;51.828;7.872;2022-08-02T13:34:04;5.70;;;2.40;;
66601;SDS011;53459;51.828;7.872;2022-08-02T13:36:31;7.30;;;2.80;;
66601;SDS011;53459;51.828;7.872;2022-08-02T13:38:58;6.35;;;2.70;;
66601;SDS011;53459;51.828;7.872;2022-08-02T13:41:23;7.07;;;2.90;;
66601;SDS011;53459;51.828;7.872;2022-08-02T13:43:49;7.13;;;2.50;;
66601;SDS011;53459;51.828;7.872;2022-08-02T13:46:14;8.45;;;2.80;;
66601;SDS011;53459;51.828;7.872;2022-08-02T13:48:40;6.20;;;2.50;;
66601;SDS011;53459;51.828;7.872;2022-08-02T13:51:06;5.85;;;2.20;;
66601;SDS011;53459;51.828;7.872;2022-08-02T13:53:37;5.07;;;2.40;;
66601;SDS011;53459;51.828;7.872;2022-08-02T13:56:05;4.97;;;2.30;;
66601;SDS011;53459;51.828;7.872;2022-08-02T13:58:31;5.85;;;2.50;;
66601;SDS011;53459;51.828;7.872;2022-08-02T14:02:01;5.20;;;2.60;;
66601;SDS011;53459;51.828;7.872;2022-08-02T14:04:27;9.50;;;2.75;;
66601;SDS011;53459;51.828;7.872;2022-08-02T14:06:54;5.45;;;2.30;;
66601;SDS011;53459;51.828;7.872;2022-08-02T14:09:20;5.68;;;2.35;;
66601;SDS011;53459;51.828;7.872;2022-08-02T14:11:46;6.40;;;2.30;;
66601;SDS011;53459;51.828;7.872;2022-08-02T14:14:12;5.80;;;2.17;;
66601;SDS011;53459;51.828;7.872;2022-08-02T14:16:38;5.70;;;2.13;;
66601;SDS011;53459;51.828;7.872;2022-08-02T14:19:04;5.25;;;2.00;;
66601;SDS011;53459;51.828;7.872;2022-08-02T14:22:40;6.05;;;2.38;;
66601;SDS011;53459;51.828;7.872;2022-08-02T14:25:06;6.30;;;2.00;;
66601;SDS011;53459;51.828;7.872;2022-08-02T14:27:46;7.68;;;2.28;;
66601;SDS011;53459;51.828;7.872;2022-08-02T14:30:12;4.70;;;2.00;;
66601;SDS011;53459;51.828;7.872;2022-08-02T14:32:38;5.00;;;1.87;;
66601;SDS011;53459;51.828;7.872;2022-08-02T14:35:03;5.50;;;2.00;;
66601;SDS011;53459;51.828;7.872;2022-08-02T14:37:29;4.72;;;2.03;;
66601;SDS011;53459;51.828;7.872;2022-08-02T14:40:10;5.03;;;2.13;;
66601;SDS011;53459;51.828;7.872;2022-08-02T14:42:35;7.43;;;2.10;;
66601;SDS011;53459;51.828;7.872;2022-08-02T14:45:01;4.97;;;2.07;;
66601;SDS011;53459;51.828;7.872;2022-08-02T14:47:27;5.33;;;2.00;;
66601;SDS011;53459;51.828;7.872;2022-08-02T14:49:52;4.85;;;1.83;;
66601;SDS011;53459;51.828;7.872;2022-08-02T14:52:18;5.17;;;2.00;;
66601;SDS011;53459;51.828;7.872;2022-08-02T14:54:44;5.10;;;2.03;;
66601;SDS011;53459;51.828;7.872;2022-08-02T14:57:10;5.25;;;1.95;;
66601;SDS011;53459;51.828;7.872;2022-08-02T14:59:36;6.00;;;2.00;;
66601;SDS011;53459;51.828;7.872;2022-08-02T15:02:01;6.65;;;2.10;;
66601;SDS011;53459;51.828;7.872;2022-08-02T15:04:27;7.75;;;2.13;;
66601;SDS011;53459;51.828;7.872;2022-08-02T15:06:55;5.57;;;2.10;;
66601;SDS011;53459;51.828;7.872;2022-08-02T15:09:20;6.23;;;2.00;;
66601;SDS011;53459;51.828;7.872;2022-08-02T15:11:56;4.95;;;1.95;;
66601;SDS011;53459;51.828;7.872;2022-08-02T15:14:22;4.50;;;1.90;;
66601;SDS011;53459;51.828;7.872;2022-08-02T15:16:47;5.47;;;1.83;;
66601;SDS011;53459;51.828;7.872;2022-08-02T15:19:13;5.03;;;2.10;;
66601;SDS011;53459;51.828;7.872;2022-08-02T15:21:39;5.78;;;2.00;;
66601;SDS011;53459;51.828;7.872;2022-08-02T15:24:04;4.93;;;2.03;;
66601;SDS011;53459;51.828;7.872;2022-08-02T15:26:30;5.70;;;2.10;;
66601;SDS011;53459;51.828;7.872;2022-08-02T15:28:56;4.53;;;2.00;;
66601;SDS011;53459;51.828;7.872;2022-08-02T15:31:22;6.18;;;2.13;;
66601;SDS011;53459;51.828;7.872;2022-08-02T15:33:48;5.95;;;1.90;;
66601;SDS011;53459;51.828;7.872;2022-08-02T15:36:14;4.78;;;1.80;;
66601;SDS011;53459;51.828;7.872;2022-08-02T15:38:41;4.95;;;1.85;;
66601;SDS011;53459;51.828;7.872;2022-08-02T15:41:06;4.78;;;1.80;;
66601;SDS011;53459;51.828;7.872;2022-08-02T15:43:35;4.70;;;2.10;;
66601;SDS011;53459;51.828;7.872;2022-08-02T15:46:01;4.47;;;2.20;;
66601;SDS011;53459;51.828;7.872;2022-08-02T15:48:27;4.23;;;1.80;;
66601;SDS011;53459;51.828;7.872;2022-08-02T15:50:53;4.78;;;1.80;;
66601;SDS011;53459;51.828;7.872;2022-08-02T15:53:18;6.20;;;1.70;;
66601;SDS011;53459;51.828;7.872;2022-08-02T15:55:44;5.85;;;1.92;;
66601;SDS011;53459;51.828;7.872;2022-08-02T15:58:10;7.68;;;2.15;;
66601;SDS011;53459;51.828;7.872;2022-08-02T16:00:36;5.85;;;2.00;;
66601;SDS011;53459;51.828;7.872;2022-08-02T16:03:02;5.60;;;1.93;;
66601;SDS011;53459;51.828;7.872;2022-08-02T16:06:15;6.18;;;2.00;;
66601;SDS011;53459;51.828;7.872;2022-08-02T16:08:41;5.55;;;2.20;;
66601;SDS011;53459;51.828;7.872;2022-08-02T16:11:06;7.27;;;2.00;;